createdAt,value
2018-08-06T00:02:18.070Z,51.36
2018-08-06T00:04:45.749Z,51.31
2018-08-06T00:07:13.933Z,51.19
2018-08-06T00:09:41.955Z,51.58
2018-08-06T00:12:09.584Z,50.76
2018-08-06T00:14:37.577Z,51.77
2018-08-06T00:17:05.359Z,51.15
2018-08-06T00:19:33.146Z,51.20
2018-08-06T00:22:00.869Z,51.36
2018-08-06T00:24:29.048Z,51.61
2018-08-06T00:26:56.662Z,51.17
2018-08-06T00:29:24.553Z,51.14
2018-08-06T00:31:52.637Z,51.14
2018-08-06T00:34:20.592Z,51.17
2018-08-06T00:36:48.209Z,51.52
2018-08-06T00:39:16.232Z,50.78
2018-08-06T00:41:43.857Z,51.58
2018-08-06T00:44:11.487Z,51.74
2018-08-06T00:46:39.463Z,51.77
2018-08-06T00:49:07.432Z,51.50
2018-08-06T00:51:35.134Z,51.79
2018-08-06T00:54:03.162Z,51.94
2018-08-06T00:56:31.033Z,50.72
2018-08-06T00:58:58.854Z,51.65
2018-08-06T01:01:26.511Z,51.53
2018-08-06T01:03:54.172Z,52.09
2018-08-06T01:06:21.853Z,51.69
2018-08-06T01:08:50.043Z,51.39
2018-08-06T01:11:17.698Z,51.69
2018-08-06T01:13:45.361Z,51.37
2018-08-06T01:16:13.938Z,51.73
2018-08-06T01:18:41.899Z,50.80
2018-08-06T01:21:09.546Z,51.27
2018-08-06T01:23:37.403Z,51.02
2018-08-06T01:26:05.438Z,51.67
2018-08-06T01:28:33.321Z,52.08
2018-08-06T01:31:00.999Z,51.60
2018-08-06T01:33:29.285Z,51.70
2018-08-06T01:35:57.230Z,50.98
2018-08-06T01:38:25.459Z,51.89
2018-08-06T01:40:53.102Z,51.26
2018-08-06T01:43:21.013Z,52.08
2018-08-06T01:45:49.031Z,51.13
2018-08-06T01:48:16.725Z,51.00
2018-08-06T01:50:44.349Z,51.45
2018-08-06T01:53:12.611Z,51.28
2018-08-06T01:55:40.543Z,51.95
2018-08-06T01:58:08.164Z,51.95
2018-08-06T02:00:35.924Z,52.00
2018-08-06T02:03:03.575Z,51.15
2018-08-06T02:05:31.238Z,51.90
2018-08-06T02:07:59.188Z,51.96
2018-08-06T02:10:26.897Z,51.68
2018-08-06T02:12:54.593Z,51.93
2018-08-06T02:15:22.273Z,51.57
2018-08-06T02:17:49.945Z,51.23
2018-08-06T02:20:17.809Z,52.19
2018-08-06T02:22:47.035Z,52.12
2018-08-06T02:25:15.002Z,51.66
2018-08-06T02:27:43.006Z,51.15
2018-08-06T02:30:12.328Z,52.06
2018-08-06T02:32:40.167Z,52.13
2018-08-06T02:35:10.466Z,52.22
2018-08-06T02:37:38.214Z,51.28
2018-08-06T02:40:07.743Z,52.27
2018-08-06T02:42:35.800Z,51.29
2018-08-06T02:45:04.250Z,51.32
2018-08-06T02:47:32.218Z,52.15
2018-08-06T02:50:00.230Z,51.24
2018-08-06T02:52:27.884Z,52.44
2018-08-06T02:54:55.489Z,52.12
2018-08-06T02:57:23.191Z,52.33
2018-08-06T02:59:50.809Z,51.76
2018-08-06T03:02:18.429Z,52.18
2018-08-06T03:04:46.668Z,51.27
2018-08-06T03:07:14.356Z,52.48
2018-08-06T03:09:42.091Z,51.57
2018-08-06T03:12:09.996Z,51.71
2018-08-06T03:14:37.880Z,51.56
2018-08-06T03:17:06.413Z,51.71
2018-08-06T03:19:34.035Z,51.69
2018-08-06T03:22:01.736Z,52.32
2018-08-06T03:24:29.753Z,52.28
2018-08-06T03:26:57.881Z,51.31
2018-08-06T03:29:25.780Z,51.67
2018-08-06T03:31:53.436Z,51.39
2018-08-06T03:34:21.052Z,51.42
2018-08-06T03:36:48.704Z,51.89
2018-08-06T03:39:16.309Z,51.73
2018-08-06T03:41:44.309Z,51.50
2018-08-06T03:44:11.966Z,51.55
2018-08-06T03:46:39.640Z,52.43
2018-08-06T03:49:07.546Z,52.46
2018-08-06T03:51:35.188Z,51.67
2018-08-06T03:54:02.880Z,52.31
2018-08-06T03:56:30.949Z,52.23
2018-08-06T03:58:58.810Z,52.23
2018-08-06T04:01:26.472Z,52.08
2018-08-06T04:03:54.163Z,51.67
2018-08-06T04:06:21.833Z,51.76
2018-08-06T04:08:49.504Z,51.62
2018-08-06T04:11:17.149Z,52.17
2018-08-06T04:13:45.274Z,51.61
2018-08-06T04:16:13.326Z,51.35
2018-08-06T04:18:41.006Z,51.77
2018-08-06T04:21:08.633Z,51.88
2018-08-06T04:23:36.594Z,51.40
2018-08-06T04:26:04.376Z,51.85
2018-08-06T04:28:32.309Z,52.07
2018-08-06T04:30:59.972Z,51.59
2018-08-06T04:33:27.857Z,51.49
2018-08-06T04:35:56.052Z,51.17
2018-08-06T04:38:23.995Z,50.90
2018-08-06T04:40:52.066Z,52.23
2018-08-06T04:43:20.925Z,51.68
2018-08-06T04:45:48.540Z,52.23
2018-08-06T04:48:16.248Z,51.44
2018-08-06T04:50:44.220Z,51.19
2018-08-06T04:53:11.930Z,51.67
2018-08-06T04:55:39.890Z,51.52
2018-08-06T04:58:07.856Z,51.37
2018-08-06T05:00:35.506Z,51.25
2018-08-06T05:03:03.138Z,51.13
2018-08-06T05:05:31.140Z,51.41
2018-08-06T05:07:58.832Z,51.36
2018-08-06T05:10:26.718Z,51.42
2018-08-06T05:12:54.760Z,52.17
2018-08-06T05:15:22.997Z,50.94
2018-08-06T05:17:50.863Z,51.64
2018-08-06T05:20:18.583Z,51.68
2018-08-06T05:22:46.538Z,51.00
2018-08-06T05:25:14.494Z,50.79
2018-08-06T05:27:42.273Z,51.44
2018-08-06T05:30:11.592Z,50.96
2018-08-06T05:32:39.482Z,51.15
2018-08-06T05:35:07.701Z,50.97
2018-08-06T05:37:35.361Z,51.36
2018-08-06T05:40:03.386Z,50.89
2018-08-06T05:42:31.059Z,50.97
2018-08-06T05:44:58.993Z,50.94
2018-08-06T05:47:26.915Z,50.67
2018-08-06T05:49:54.793Z,51.64
2018-08-06T05:52:22.492Z,51.68
2018-08-06T05:54:50.628Z,50.54
2018-08-06T05:57:18.236Z,50.65
2018-08-06T05:59:45.876Z,50.90
2018-08-06T06:02:14.086Z,51.26
2018-08-06T06:04:41.781Z,50.79
2018-08-06T06:07:09.396Z,50.43
2018-08-06T06:09:37.891Z,50.83
2018-08-06T06:12:05.549Z,50.60
2018-08-06T06:14:33.460Z,50.31
2018-08-06T06:17:01.200Z,50.27
2018-08-06T06:19:29.071Z,50.94
2018-08-06T06:21:56.733Z,50.49
2018-08-06T06:24:24.446Z,50.42
2018-08-06T06:26:52.105Z,50.63
2018-08-06T06:29:20.075Z,50.11
2018-08-06T06:31:48.006Z,51.07
2018-08-06T06:34:15.633Z,51.16
2018-08-06T06:36:43.522Z,50.02
2018-08-06T06:39:12.494Z,50.54
2018-08-06T06:41:40.614Z,49.99
2018-08-06T06:44:08.778Z,50.85
2018-08-06T06:46:36.858Z,50.12
2018-08-06T06:49:04.814Z,50.64
2018-08-06T06:51:32.421Z,50.91
2018-08-06T06:54:00.110Z,50.23
2018-08-06T06:56:27.746Z,49.82
2018-08-06T06:58:55.793Z,50.64
2018-08-06T07:01:23.502Z,50.34
2018-08-06T07:03:51.185Z,49.96
2018-08-06T07:06:18.865Z,50.52
2018-08-06T07:08:46.537Z,50.49
2018-08-06T07:11:14.184Z,50.00
2018-08-06T07:13:42.106Z,49.82
2018-08-06T07:16:09.805Z,49.70
2018-08-06T07:18:37.921Z,50.20
2018-08-06T07:21:06.072Z,50.17
2018-08-06T07:23:33.990Z,50.41
2018-08-06T07:26:01.751Z,49.55
2018-08-06T07:28:29.467Z,50.18
2018-08-06T07:30:57.137Z,49.51
2018-08-06T07:33:24.806Z,50.02
2018-08-06T07:35:52.810Z,50.12
2018-08-06T07:38:20.862Z,49.63
2018-08-06T07:40:48.844Z,50.19
2018-08-06T07:43:16.658Z,49.55
2018-08-06T07:45:44.221Z,49.25
2018-08-06T07:48:12.131Z,49.52
2018-08-06T07:50:39.762Z,49.52
2018-08-06T07:53:07.728Z,48.89
2018-08-06T07:55:35.718Z,49.82
2018-08-06T07:58:03.324Z,49.61
2018-08-06T08:00:31.030Z,49.50
2018-08-06T08:02:58.658Z,49.12
2018-08-06T08:05:26.655Z,49.10
2018-08-06T08:07:54.335Z,49.38
2018-08-06T08:10:23.243Z,49.30
2018-08-06T08:12:51.120Z,49.71
2018-08-06T08:15:24.508Z,49.19
2018-08-06T08:17:52.314Z,49.18
2018-08-06T08:20:20.126Z,49.62
2018-08-06T08:22:47.844Z,48.73
2018-08-06T08:25:17.105Z,49.11
2018-08-06T08:27:44.897Z,48.53
2018-08-06T08:30:13.762Z,49.06
2018-08-06T08:32:41.408Z,48.99
2018-08-06T08:35:09.658Z,48.94
2018-08-06T08:37:37.334Z,48.43
2018-08-06T08:40:08.686Z,49.46
2018-08-06T08:42:36.672Z,49.28
2018-08-06T08:45:06.179Z,48.29
2018-08-06T08:47:34.181Z,48.75
2018-08-06T08:50:01.809Z,48.18
2018-08-06T08:52:29.561Z,48.16
2018-08-06T08:54:57.169Z,49.15
2018-08-06T08:57:24.876Z,48.14
2018-08-06T08:59:52.861Z,48.66
2018-08-06T09:02:20.797Z,48.72
2018-08-06T09:04:49.037Z,49.04
2018-08-06T09:07:16.685Z,48.40
2018-08-06T09:09:44.348Z,48.69
2018-08-06T09:12:11.978Z,48.02
2018-08-06T09:14:39.961Z,48.40
2018-08-06T09:17:07.669Z,48.15
2018-08-06T09:19:35.289Z,48.95
2018-08-06T09:22:03.154Z,48.35
2018-08-06T09:24:30.776Z,48.59
2018-08-06T09:26:58.477Z,48.28
2018-08-06T09:29:26.191Z,48.12
2018-08-06T09:31:53.801Z,47.98
2018-08-06T09:34:21.760Z,48.15
2018-08-06T09:36:49.693Z,47.93
2018-08-06T09:39:18.017Z,48.12
2018-08-06T09:41:46.213Z,48.08
2018-08-06T09:44:14.431Z,48.33
2018-08-06T09:46:42.220Z,47.99
2018-08-06T09:49:09.953Z,48.23
2018-08-06T09:51:37.987Z,48.51
2018-08-06T09:54:05.934Z,47.36
2018-08-06T09:56:33.613Z,48.34
2018-08-06T09:59:01.285Z,47.85
2018-08-06T10:01:34.501Z,47.77
2018-08-06T10:04:02.229Z,47.89
2018-08-06T10:06:30.166Z,47.52
2018-08-06T10:08:57.551Z,47.72
2018-08-06T10:11:25.745Z,47.16
2018-08-06T10:13:53.597Z,48.02
2018-08-06T10:16:21.501Z,48.18
2018-08-06T10:18:49.337Z,47.54
2018-08-06T10:21:17.178Z,47.07
2018-08-06T10:23:45.120Z,47.61
2018-08-06T10:26:12.802Z,48.05
2018-08-06T10:28:40.693Z,48.01
2018-08-06T10:31:08.355Z,47.98
2018-08-06T10:33:36.027Z,48.00
2018-08-06T10:36:03.686Z,47.49
2018-08-06T10:38:31.554Z,48.04
2018-08-06T10:40:59.313Z,47.14
2018-08-06T10:43:27.009Z,47.47
2018-08-06T10:45:54.653Z,46.89
2018-08-06T10:48:22.710Z,47.38
2018-08-06T10:50:50.558Z,47.43
2018-08-06T10:53:18.198Z,47.52
2018-08-06T10:55:45.886Z,47.82
2018-08-06T10:58:13.575Z,47.22
2018-08-06T11:00:41.521Z,47.00
2018-08-06T11:03:09.769Z,46.91
2018-08-06T11:05:38.027Z,47.52
2018-08-06T11:08:05.689Z,47.58
2018-08-06T11:10:33.348Z,47.32
2018-08-06T11:13:01.023Z,46.85
2018-08-06T11:15:28.673Z,47.19
2018-08-06T11:17:56.377Z,47.25
2018-08-06T11:20:24.423Z,46.95
2018-08-06T11:22:52.676Z,46.38
2018-08-06T11:25:21.992Z,47.21
2018-08-06T11:27:50.167Z,47.38
2018-08-06T11:30:19.402Z,46.75
2018-08-06T11:32:47.606Z,46.44
2018-08-06T11:35:15.630Z,46.90
2018-08-06T11:37:43.380Z,47.30
2018-08-06T11:40:12.428Z,46.19
2018-08-06T11:42:41.171Z,46.58
2018-08-06T11:45:10.838Z,46.60
2018-08-06T11:47:38.893Z,46.43
2018-08-06T11:50:06.977Z,46.70
2018-08-06T11:52:34.595Z,46.53
2018-08-06T11:55:02.264Z,46.10
2018-08-06T11:57:30.316Z,46.35
2018-08-06T11:59:58.201Z,45.96
2018-08-06T12:02:26.378Z,46.30
2018-08-06T12:04:54.039Z,46.72
2018-08-06T12:07:21.783Z,46.14
2018-08-06T12:09:49.885Z,46.63
2018-08-06T12:12:18.123Z,45.96
2018-08-06T12:14:45.741Z,46.58
2018-08-06T12:17:13.475Z,46.26
2018-08-06T12:19:42.136Z,46.09
2018-08-06T12:22:09.802Z,46.49
2018-08-06T12:24:37.527Z,45.63
2018-08-06T12:27:05.561Z,46.26
2018-08-06T12:29:33.431Z,45.70
2018-08-06T12:32:01.092Z,45.56
2018-08-06T12:34:28.770Z,46.19
2018-08-06T12:36:56.758Z,46.43
2018-08-06T12:39:24.449Z,46.28
2018-08-06T12:41:52.115Z,46.02
2018-08-06T12:44:19.781Z,46.06
2018-08-06T12:46:47.690Z,46.15
2018-08-06T12:49:15.815Z,46.02
2018-08-06T12:51:44.169Z,45.98
2018-08-06T12:54:12.493Z,45.35
2018-08-06T12:56:40.706Z,46.20
2018-08-06T12:59:08.403Z,45.37
2018-08-06T13:01:36.053Z,45.42
2018-08-06T13:04:03.713Z,45.31
2018-08-06T13:06:31.382Z,45.58
2018-08-06T13:08:59.117Z,46.19
2018-08-06T13:11:27.145Z,46.10
2018-08-06T13:13:54.782Z,46.07
2018-08-06T13:16:22.706Z,45.11
2018-08-06T13:18:50.409Z,45.94
2018-08-06T13:21:18.314Z,45.61
2018-08-06T13:23:45.961Z,45.33
2018-08-06T13:26:13.856Z,45.63
2018-08-06T13:28:41.989Z,45.93
2018-08-06T13:31:09.644Z,45.23
2018-08-06T13:33:37.626Z,45.93
2018-08-06T13:36:05.325Z,44.96
2018-08-06T13:38:33.038Z,45.03
2018-08-06T13:41:00.933Z,45.20
2018-08-06T13:43:28.638Z,45.75
2018-08-06T13:45:56.606Z,45.64
2018-08-06T13:48:24.342Z,44.69
2018-08-06T13:50:51.974Z,45.06
2018-08-06T13:53:19.899Z,45.03
2018-08-06T13:55:47.958Z,45.40
2018-08-06T13:58:15.639Z,44.39
2018-08-06T14:00:43.264Z,45.22
2018-08-06T14:03:10.964Z,44.83
2018-08-06T14:05:38.598Z,44.39
2018-08-06T14:08:06.278Z,44.88
2018-08-06T14:10:34.414Z,44.74
2018-08-06T14:13:02.342Z,44.97
2018-08-06T14:15:30.193Z,43.93
2018-08-06T14:17:57.835Z,44.37
2018-08-06T14:20:25.836Z,44.13
2018-08-06T14:22:53.523Z,43.59
2018-08-06T14:25:21.546Z,42.94
2018-08-06T14:27:49.444Z,42.21
2018-08-06T14:30:17.635Z,41.98
2018-08-06T14:32:45.597Z,40.05
2018-08-06T14:35:14.294Z,37.27
2018-08-06T14:37:41.942Z,35.88
2018-08-06T14:40:14.081Z,35.29
2018-08-06T14:42:42.078Z,34.24
2018-08-06T14:45:10.350Z,34.45
2018-08-06T14:47:38.003Z,34.56
2018-08-06T14:50:06.833Z,33.81
2018-08-06T14:52:34.544Z,33.92
2018-08-06T14:55:02.229Z,34.72
2018-08-06T14:57:36.913Z,35.34
2018-08-06T15:00:11.321Z,35.98
2018-08-06T15:02:39.444Z,36.57
2018-08-06T15:05:07.280Z,37.76
2018-08-06T15:07:35.394Z,37.81
2018-08-06T15:10:03.252Z,35.21
2018-08-06T15:12:30.917Z,36.23
2018-08-06T15:14:58.857Z,36.11
2018-08-06T15:17:27.103Z,37.13
2018-08-06T15:19:55.166Z,38.97
2018-08-06T15:22:22.856Z,39.05
2018-08-06T15:24:50.533Z,39.84
2018-08-06T15:27:18.555Z,39.56
2018-08-06T15:29:46.266Z,39.80
2018-08-06T15:32:14.229Z,39.87
2018-08-06T15:34:41.928Z,40.26
2018-08-06T15:37:09.621Z,39.80
2018-08-06T15:39:37.511Z,40.45
2018-08-06T15:42:05.669Z,40.60
2018-08-06T15:44:33.330Z,40.66
2018-08-06T15:47:00.993Z,40.74
2018-08-06T15:49:28.732Z,40.47
2018-08-06T15:51:56.671Z,40.74
2018-08-06T15:54:24.468Z,41.06
2018-08-06T15:56:52.786Z,40.88
2018-08-06T15:59:20.702Z,41.10
2018-08-06T16:01:48.386Z,41.14
2018-08-06T16:04:16.102Z,41.66
2018-08-06T16:06:43.753Z,41.67
2018-08-06T16:09:11.796Z,41.91
2018-08-06T16:11:39.568Z,41.63
2018-08-06T16:14:07.250Z,41.45
2018-08-06T16:16:34.926Z,42.00
2018-08-06T16:19:02.575Z,42.13
2018-08-06T16:21:30.243Z,42.20
2018-08-06T16:23:57.887Z,42.14
2018-08-06T16:26:25.879Z,42.41
2018-08-06T16:28:53.531Z,41.82
2018-08-06T16:31:21.374Z,42.11
2018-08-06T16:33:49.060Z,41.86
2018-08-06T16:36:16.942Z,41.87
2018-08-06T16:38:44.826Z,42.17
2018-08-06T16:41:12.482Z,41.91
2018-08-06T16:43:40.291Z,42.03
2018-08-06T16:46:07.920Z,42.74
2018-08-06T16:48:35.890Z,42.25
2018-08-06T16:51:03.887Z,42.87
2018-08-06T16:53:32.141Z,42.04
2018-08-06T16:56:00.074Z,42.69
2018-08-06T16:58:27.747Z,42.06
2018-08-06T17:00:55.730Z,42.37
2018-08-06T17:03:23.569Z,42.90
2018-08-06T17:05:51.220Z,42.71
2018-08-06T17:08:18.900Z,42.89
2018-08-06T17:10:46.829Z,42.54
2018-08-06T17:13:14.757Z,43.25
2018-08-06T17:15:42.420Z,42.99
2018-08-06T17:18:10.333Z,42.78
2018-08-06T17:20:38.004Z,42.92
2018-08-06T17:23:05.738Z,43.64
2018-08-06T17:25:33.393Z,42.88
2018-08-06T17:28:01.325Z,43.68
2018-08-06T17:30:28.997Z,43.46
2018-08-06T17:32:57.025Z,43.07
2018-08-06T17:35:24.698Z,43.90
2018-08-06T17:37:52.345Z,43.07
2018-08-06T17:40:20.040Z,43.13
2018-08-06T17:42:47.867Z,43.63
2018-08-06T17:45:18.716Z,43.54
2018-08-06T17:47:47.217Z,42.87
2018-08-06T17:50:17.414Z,42.62
2018-08-06T17:52:46.311Z,43.38
2018-08-06T17:55:14.569Z,43.19
2018-08-06T17:57:42.925Z,42.48
2018-08-06T18:00:11.624Z,43.27
2018-08-06T18:02:39.596Z,43.44
2018-08-06T18:05:09.398Z,42.96
2018-08-06T18:07:37.157Z,43.15
2018-08-06T18:10:06.419Z,43.07
2018-08-06T18:12:34.113Z,43.30
2018-08-06T18:15:02.100Z,43.12
2018-08-06T18:17:29.961Z,43.27
2018-08-06T18:19:57.864Z,43.38
2018-08-06T18:22:25.876Z,44.05
2018-08-06T18:24:54.093Z,43.34
2018-08-06T18:27:22.152Z,44.31
2018-08-06T18:29:49.878Z,43.85
2018-08-06T18:32:17.502Z,43.38
2018-08-06T18:34:45.385Z,43.76
2018-08-06T18:37:13.747Z,44.83
2018-08-06T18:39:41.739Z,44.88
2018-08-06T18:42:09.381Z,44.84
2018-08-06T18:44:37.071Z,44.56
2018-08-06T18:47:05.185Z,45.46
2018-08-06T18:49:33.206Z,44.83
2018-08-06T18:52:01.461Z,44.71
2018-08-06T18:54:29.166Z,45.30
2018-08-06T18:56:56.824Z,45.64
2018-08-06T18:59:24.576Z,45.72
2018-08-06T19:01:52.531Z,45.60
2018-08-06T19:04:20.242Z,45.19
2018-08-06T19:06:48.471Z,46.11
2018-08-06T19:09:16.847Z,45.44
2018-08-06T19:11:45.571Z,45.77
2018-08-06T19:14:21.073Z,46.03
2018-08-06T19:16:49.944Z,45.65
2018-08-06T19:19:21.246Z,46.10
2018-08-06T19:21:49.255Z,46.25
2018-08-06T19:24:23.143Z,46.48
2018-08-06T19:26:51.212Z,46.72
2018-08-06T19:29:18.892Z,46.64
2018-08-06T19:31:46.757Z,46.85
2018-08-06T19:34:14.469Z,46.16
2018-08-06T19:36:47.885Z,46.01
2018-08-06T19:39:16.150Z,46.74
2018-08-06T19:41:43.926Z,46.84
2018-08-06T19:44:11.590Z,47.03
2018-08-06T19:46:39.265Z,46.10
2018-08-06T19:49:12.885Z,45.16
2018-08-06T19:51:40.870Z,45.11
2018-08-06T19:54:09.466Z,46.43
2018-08-06T19:56:37.196Z,45.37
2018-08-06T19:59:05.628Z,44.76
2018-08-06T20:01:34.085Z,45.64
2018-08-06T20:04:01.782Z,45.81
2018-08-06T20:06:29.423Z,45.44
2018-08-06T20:08:57.158Z,45.26
2018-08-06T20:11:24.801Z,45.51
2018-08-06T20:13:52.658Z,44.61
2018-08-06T20:16:20.272Z,45.57
2018-08-06T20:18:48.900Z,45.51
2018-08-06T20:21:16.890Z,45.48
2018-08-06T20:23:45.206Z,45.72
2018-08-06T20:26:13.070Z,45.76
2018-08-06T20:28:41.189Z,45.75
2018-08-06T20:31:09.395Z,46.37
2018-08-06T20:33:37.045Z,46.46
2018-08-06T20:36:05.594Z,46.70
2018-08-06T20:38:33.523Z,47.22
2018-08-06T20:41:01.163Z,46.56
2018-08-06T20:43:29.144Z,46.86
2018-08-06T20:45:56.810Z,47.61
2018-08-06T20:48:24.624Z,47.32
2018-08-06T20:50:53.361Z,47.96
2018-08-06T20:53:21.189Z,46.87
2018-08-06T20:55:49.369Z,47.39
2018-08-06T20:58:17.269Z,46.59
2018-08-06T21:00:45.568Z,47.53
2018-08-06T21:03:13.248Z,46.83
2018-08-06T21:05:41.304Z,47.04
2018-08-06T21:08:09.539Z,47.07
2018-08-06T21:10:37.384Z,47.17
2018-08-06T21:13:05.440Z,47.47
2018-08-06T21:15:33.273Z,46.80
2018-08-06T21:18:01.319Z,47.00
2018-08-06T21:20:29.452Z,46.53
2018-08-06T21:22:57.602Z,47.10
2018-08-06T21:25:25.981Z,47.07
2018-08-06T21:27:54.183Z,46.96
2018-08-06T21:30:22.223Z,47.38
2018-08-06T21:32:55.817Z,47.66
2018-08-06T21:35:25.098Z,46.56
2018-08-06T21:37:54.157Z,46.98
2018-08-06T21:40:22.802Z,46.80
2018-08-06T21:42:51.167Z,46.82
2018-08-06T21:45:19.728Z,47.04
2018-08-06T21:47:47.843Z,47.15
2018-08-06T21:50:15.858Z,47.18
2018-08-06T21:52:44.190Z,47.91
2018-08-06T21:55:12.276Z,47.63
2018-08-06T21:57:39.933Z,47.21
2018-08-06T22:00:12.237Z,48.20
2018-08-06T22:02:40.454Z,47.51
2018-08-06T22:05:08.537Z,47.70
2018-08-06T22:07:36.672Z,48.59
2018-08-06T22:10:04.876Z,48.20
2018-08-06T22:12:32.513Z,48.54
2018-08-06T22:15:00.446Z,49.00
2018-08-06T22:17:28.093Z,48.45
2018-08-06T22:19:56.031Z,48.23
2018-08-06T22:22:23.750Z,49.09
2018-08-06T22:24:51.408Z,48.66
2018-08-06T22:27:19.047Z,49.58
2018-08-06T22:29:47.033Z,48.44
2018-08-06T22:32:15.051Z,48.62
2018-08-06T22:34:42.729Z,48.03
2018-08-06T22:37:10.389Z,48.45
2018-08-06T22:39:38.677Z,48.41
2018-08-06T22:42:06.305Z,47.78
2018-08-06T22:44:34.552Z,48.54
2018-08-06T22:47:02.214Z,48.83
2018-08-06T22:49:29.858Z,49.02
2018-08-06T22:51:57.508Z,48.09
2018-08-06T22:54:25.143Z,48.95
2018-08-06T22:56:52.824Z,48.57
2018-08-06T22:59:20.488Z,49.06
2018-08-06T23:01:48.117Z,49.28
2018-08-06T23:04:15.766Z,49.01
2018-08-06T23:06:43.787Z,49.38
2018-08-06T23:09:12.615Z,48.98
2018-08-06T23:11:41.276Z,49.36
2018-08-06T23:14:09.094Z,49.34
2018-08-06T23:16:37.112Z,48.83
2018-08-06T23:19:05.086Z,48.89
2018-08-06T23:21:33.325Z,48.37
2018-08-06T23:24:01.775Z,49.47
2018-08-06T23:26:29.889Z,48.71
2018-08-06T23:28:57.528Z,49.25
2018-08-06T23:31:25.211Z,49.24
2018-08-06T23:33:53.284Z,48.83
2018-08-06T23:36:20.908Z,48.94
2018-08-06T23:38:48.571Z,49.37
2018-08-06T23:41:16.753Z,48.50
2018-08-06T23:43:44.415Z,48.55
2018-08-06T23:46:12.069Z,48.86
2018-08-06T23:48:39.752Z,48.28
2018-08-06T23:51:07.996Z,49.19
2018-08-06T23:53:35.630Z,49.36
2018-08-06T23:56:03.606Z,49.41
2018-08-06T23:58:31.672Z,50.09
